sensor_id;sensor_type;location;lat;lon;timestamp;pressure;altitude;pressure_sealevel;temperature;humidity
9235;BME280;4652;42.716;23.218;2023-03-14T08:08:11;94756.22;;;21.70;32.30
9235;BME280;4652;42.716;23.218;2023-03-14T08:14:53;94745.06;;;20.27;33.54
9235;BME280;4652;42.716;23.218;2023-03-14T08:21:35;94734.03;;;16.88;37.77
9235;BME280;4652;42.716;23.218;2023-03-14T08:28:18;94745.41;;;13.56;41.71
9235;BME280;4652;42.716;23.218;2023-03-14T08:35:01;94733.78;;;11.98;45.40
9235;BME280;4652;42.716;23.218;2023-03-14T08:41:43;94695.91;;;11.44;46.40
9235;BME280;4652;42.716;23.218;2023-03-14T08:48:26;94711.03;;;11.12;46.77
9235;BME280;4652;42.716;23.218;2023-03-14T08:55:10;94695.00;;;11.35;47.90
9235;BME280;4652;42.716;23.218;2023-03-14T09:01:52;94692.53;;;11.06;47.29
9235;BME280;4652;42.716;23.218;2023-03-14T09:08:36;94684.34;;;11.11;46.27
9235;BME280;4652;42.716;23.218;2023-03-14T09:15:18;94674.03;;;11.32;46.80
9235;BME280;4652;42.716;23.218;2023-03-14T09:22:00;94664.06;;;11.59;45.17
9235;BME280;4652;42.716;23.218;2023-03-14T09:28:44;94615.53;;;12.00;45.15
9235;BME280;4652;42.716;23.218;2023-03-14T09:35:26;94643.41;;;11.96;42.86
9235;BME280;4652;42.716;23.218;2023-03-14T09:42:13;94638.59;;;12.06;43.62
9235;BME280;4652;42.716;23.218;2023-03-14T09:48:59;94613.19;;;12.43;42.79
9235;BME280;4652;42.716;23.218;2023-03-14T09:55:42;94603.31;;;12.38;43.12
9235;BME280;4652;42.716;23.218;2023-03-14T10:02:26;94578.38;;;12.19;43.89
9235;BME280;4652;42.716;23.218;2023-03-14T10:09:19;94541.34;;;12.33;42.66
9235;BME280;4652;42.716;23.218;2023-03-14T10:16:06;94548.84;;;12.59;42.16
9235;BME280;4652;42.716;23.218;2023-03-14T10:22:50;94533.06;;;12.52;42.38
9235;BME280;4652;42.716;23.218;2023-03-14T10:29:34;94513.94;;;12.71;41.75
9235;BME280;4652;42.716;23.218;2023-03-14T10:36:33;94492.78;;;12.64;41.14
9235;BME280;4652;42.716;23.218;2023-03-14T10:43:18;94484.00;;;12.89;42.04
9235;BME280;4652;42.716;23.218;2023-03-14T10:50:24;94468.44;;;13.34;41.35
9235;BME280;4652;42.716;23.218;2023-03-14T10:57:07;94456.06;;;13.68;40.51
9235;BME280;4652;42.716;23.218;2023-03-14T11:03:53;94439.19;;;13.53;40.66
9235;BME280;4652;42.716;23.218;2023-03-14T11:10:39;94408.19;;;13.77;40.42
9235;BME280;4652;42.716;23.218;2023-03-14T11:17:29;94397.63;;;14.18;39.55
9235;BME280;4652;42.716;23.218;2023-03-14T11:31:23;94357.50;;;14.66;39.50
9235;BME280;4652;42.716;23.218;2023-03-14T11:38:14;94341.63;;;14.86;40.70
9235;BME280;4652;42.716;23.218;2023-03-14T11:44:58;94306.66;;;14.93;40.98
9235;BME280;4652;42.716;23.218;2023-03-14T11:51:44;94330.28;;;14.63;40.87
9235;BME280;4652;42.716;23.218;2023-03-14T11:58:33;94306.66;;;14.93;41.80
9235;BME280;4652;42.716;23.218;2023-03-14T12:05:44;94240.66;;;14.68;41.75
9235;BME280;4652;42.716;23.218;2023-03-14T12:12:30;94269.28;;;15.19;41.74
9235;BME280;4652;42.716;23.218;2023-03-14T12:26:19;94253.13;;;15.10;41.53
9235;BME280;4652;42.716;23.218;2023-03-14T12:40:17;94226.72;;;14.99;43.05
9235;BME280;4652;42.716;23.218;2023-03-14T12:54:21;94185.03;;;16.02;40.18
9235;BME280;4652;42.716;23.218;2023-03-14T13:01:15;94170.81;;;15.72;40.51
9235;BME280;4652;42.716;23.218;2023-03-14T13:08:06;94172.31;;;15.94;41.25
9235;BME280;4652;42.716;23.218;2023-03-14T13:14:52;94140.31;;;15.99;40.13
9235;BME280;4652;42.716;23.218;2023-03-14T13:21:35;94115.53;;;15.64;40.25
9235;BME280;4652;42.716;23.218;2023-03-14T13:28:19;94113.47;;;16.22;39.29
9235;BME280;4652;42.716;23.218;2023-03-14T13:35:13;94109.97;;;16.21;39.77
9235;BME280;4652;42.716;23.218;2023-03-14T13:41:59;94078.41;;;16.17;40.11
9235;BME280;4652;42.716;23.218;2023-03-14T13:48:44;94071.53;;;16.47;40.40
9235;BME280;4652;42.716;23.218;2023-03-14T15:11:58;93957.09;;;15.57;39.52
9235;BME280;4652;42.716;23.218;2023-03-14T15:18:41;93946.69;;;15.22;40.04
9235;BME280;4652;42.716;23.218;2023-03-14T15:25:23;93931.88;;;15.08;39.77
9235;BME280;4652;42.716;23.218;2023-03-14T15:32:10;93927.13;;;14.93;41.37
9235;BME280;4652;42.716;23.218;2023-03-14T15:38:54;93928.88;;;14.64;40.74
9235;BME280;4652;42.716;23.218;2023-03-14T15:45:36;93920.03;;;14.43;40.40
9235;BME280;4652;42.716;23.218;2023-03-14T15:52:20;93922.16;;;14.17;40.94
9235;BME280;4652;42.716;23.218;2023-03-14T15:59:02;93917.31;;;13.90;41.83
9235;BME280;4652;42.716;23.218;2023-03-14T16:05:44;93906.78;;;13.56;41.88
9235;BME280;4652;42.716;23.218;2023-03-14T16:12:27;93921.41;;;13.34;42.74
9235;BME280;4652;42.716;23.218;2023-03-14T16:19:09;93916.97;;;13.00;43.41
9235;BME280;4652;42.716;23.218;2023-03-14T16:25:51;93919.13;;;12.77;44.04
9235;BME280;4652;42.716;23.218;2023-03-14T16:32:35;93927.22;;;12.40;44.85
9235;BME280;4652;42.716;23.218;2023-03-14T16:39:17;93909.38;;;11.92;44.53
9235;BME280;4652;42.716;23.218;2023-03-14T16:46:00;93944.44;;;11.75;45.43
9235;BME280;4652;42.716;23.218;2023-03-14T16:52:43;93896.94;;;11.14;45.95
9235;BME280;4652;42.716;23.218;2023-03-14T16:59:29;93911.16;;;10.97;46.01
9235;BME280;4652;42.716;23.218;2023-03-14T17:06:13;93934.94;;;10.95;46.34
9235;BME280;4652;42.716;23.218;2023-03-14T17:12:57;93943.09;;;10.73;46.65
9235;BME280;4652;42.716;23.218;2023-03-14T17:19:38;93947.69;;;10.42;47.45
9235;BME280;4652;42.716;23.218;2023-03-14T17:26:21;93945.22;;;10.01;47.92
9235;BME280;4652;42.716;23.218;2023-03-14T17:33:04;93946.50;;;9.81;49.04
9235;BME280;4652;42.716;23.218;2023-03-14T17:39:46;93945.75;;;9.67;48.80
9235;BME280;4652;42.716;23.218;2023-03-14T17:46:28;93948.81;;;9.52;49.01
9235;BME280;4652;42.716;23.218;2023-03-14T17:53:12;93953.91;;;9.40;49.27
9235;BME280;4652;42.716;23.218;2023-03-14T17:59:54;93943.28;;;9.35;48.85
9235;BME280;4652;42.716;23.218;2023-03-14T18:06:36;93935.78;;;9.10;48.83
9235;BME280;4652;42.716;23.218;2023-03-14T18:13:19;93946.63;;;9.05;49.20
9235;BME280;4652;42.716;23.218;2023-03-14T18:20:01;93955.19;;;8.93;49.71
9235;BME280;4652;42.716;23.218;2023-03-14T18:26:48;93953.31;;;8.80;49.92
9235;BME280;4652;42.716;23.218;2023-03-14T18:33:31;93951.13;;;8.68;49.35
9235;BME280;4652;42.716;23.218;2023-03-14T18:40:17;93961.66;;;8.65;49.44
9235;BME280;4652;42.716;23.218;2023-03-14T18:47:00;93973.88;;;8.57;49.98
9235;BME280;4652;42.716;23.218;2023-03-14T18:53:44;93950.19;;;8.32;49.74
9235;BME280;4652;42.716;23.218;2023-03-14T19:00:26;93962.53;;;8.47;49.28
9235;BME280;4652;42.716;23.218;2023-03-14T19:07:08;93949.03;;;8.38;49.09
9235;BME280;4652;42.716;23.218;2023-03-14T19:13:54;93944.63;;;8.28;48.70
9235;BME280;4652;42.716;23.218;2023-03-14T19:20:38;93940.19;;;8.05;48.94
9235;BME280;4652;42.716;23.218;2023-03-14T19:27:20;93963.88;;;7.98;49.13
9235;BME280;4652;42.716;23.218;2023-03-14T19:34:04;93961.03;;;7.76;50.16
9235;BME280;4652;42.716;23.218;2023-03-14T19:40:46;93992.56;;;7.65;50.68
9235;BME280;4652;42.716;23.218;2023-03-14T19:47:30;93983.28;;;7.77;52.96
9235;BME280;4652;42.716;23.218;2023-03-14T19:54:14;93974.19;;;7.59;54.49
9235;BME280;4652;42.716;23.218;2023-03-14T20:08:13;93964.03;;;7.19;54.80
9235;BME280;4652;42.716;23.218;2023-03-14T20:14:55;93937.81;;;6.78;57.95
9235;BME280;4652;42.716;23.218;2023-03-14T20:21:37;93955.31;;;6.23;62.08
9235;BME280;4652;42.716;23.218;2023-03-14T20:28:21;93958.34;;;5.78;65.11
9235;BME280;4652;42.716;23.218;2023-03-14T20:35:03;93955.47;;;5.41;67.38
9235;BME280;4652;42.716;23.218;2023-03-14T20:41:46;93944.94;;;5.15;70.25
9235;BME280;4652;42.716;23.218;2023-03-14T20:48:30;93953.38;;;4.89;75.84
9235;BME280;4652;42.716;23.218;2023-03-14T20:55:12;93946.00;;;4.70;83.35
9235;BME280;4652;42.716;23.218;2023-03-14T21:01:54;93941.00;;;4.54;84.49
9235;BME280;4652;42.716;23.218;2023-03-14T21:08:38;93936.25;;;4.41;86.84
9235;BME280;4652;42.716;23.218;2023-03-14T21:15:22;93919.75;;;4.34;86.83
9235;BME280;4652;42.716;23.218;2023-03-14T21:22:04;93918.50;;;4.16;89.92
9235;BME280;4652;42.716;23.218;2023-03-14T21:28:48;93942.16;;;4.33;88.30
9235;BME280;4652;42.716;23.218;2023-03-14T21:35:30;93919.38;;;3.86;96.08
9235;BME280;4652;42.716;23.218;2023-03-14T21:42:12;93936.97;;;3.77;96.86
9235;BME280;4652;42.716;23.218;2023-03-14T21:48:56;93925.72;;;3.95;95.36
9235;BME280;4652;42.716;23.218;2023-03-14T21:55:40;93906.63;;;3.78;98.11
9235;BME280;4652;42.716;23.218;2023-03-14T22:02:22;93886.91;;;3.89;97.66
9235;BME280;4652;42.716;23.218;2023-03-14T22:09:06;93884.16;;;4.04;96.73
9235;BME280;4652;42.716;23.218;2023-03-14T22:15:48;93861.34;;;3.78;95.64
9235;BME280;4652;42.716;23.218;2023-03-14T22:22:31;93880.91;;;4.23;94.72
9235;BME280;4652;42.716;23.218;2023-03-14T22:29:15;93874.47;;;4.29;93.77
9235;BME280;4652;42.716;23.218;2023-03-14T22:35:57;93870.56;;;4.16;95.27
9235;BME280;4652;42.716;23.218;2023-03-14T22:42:39;93865.25;;;4.01;96.66
9235;BME280;4652;42.716;23.218;2023-03-14T22:49:23;93862.09;;;3.99;99.58
9235;BME280;4652;42.716;23.218;2023-03-14T22:56:06;93856.03;;;3.73;99.22
9235;BME280;4652;42.716;23.218;2023-03-14T23:02:48;93828.31;;;3.79;100.00
9235;BME280;4652;42.716;23.218;2023-03-14T23:09:31;93848.50;;;4.05;100.00
9235;BME280;4652;42.716;23.218;2023-03-14T23:16:14;93860.19;;;4.04;100.00
9235;BME280;4652;42.716;23.218;2023-03-14T23:22:56;93846.41;;;3.82;100.00
9235;BME280;4652;42.716;23.218;2023-03-14T23:29:39;93854.94;;;3.89;100.00
9235;BME280;4652;42.716;23.218;2023-03-14T23:36:21;93853.34;;;3.83;100.00
9235;BME280;4652;42.716;23.218;2023-03-14T23:43:03;93845.91;;;3.80;100.00
9235;BME280;4652;42.716;23.218;2023-03-14T23:49:46;93843.56;;;3.59;100.00
